Time;durP1;ratioP1;P1;durP2;ratioP2;P2;SDS_P1;SDS_P2;PMS_P1;PMS_P2;Temp;Humidity;BMP_temperature;BMP_pressure;BME280_temperature;BME280_humidity;BME280_pressure;Samples;Min_cycle;Max_cycle;Signal;HPM_P1;HPM_P2
2024/04/12 00:01:14;;;;;;;15.13;11.05;;;;;;;13.69;68.61;100426.00;5162971;27;19999;-90
2024/04/12 00:03:41;;;;;;;16.90;10.50;;;;;;;13.76;68.35;100437.41;5162042;27;20022;-90
2024/04/12 00:06:15;;;;;;;18.83;10.93;;;;;;;13.74;68.61;100447.69;5159407;27;20003;-90
2024/04/12 00:08:50;;;;;;;14.95;11.45;;;;;;;13.66;69.06;100443.56;5190049;27;20016;-90
2024/04/12 00:11:20;;;;;;;22.00;11.65;;;;;;;13.61;69.08;100442.72;5140795;27;20008;-90
2024/04/12 00:13:52;;;;;;;14.30;10.52;;;;;;;13.61;68.84;100440.03;5190003;27;20047;-87
2024/04/12 00:16:23;;;;;;;23.40;11.05;;;;;;;13.56;69.12;100432.69;5160822;27;20024;-89
2024/04/12 00:21:37;;;;;;;17.20;10.77;;;;;;;13.57;69.24;100428.09;5192627;27;20077;-91
2024/04/12 00:24:06;;;;;;;13.98;10.70;;;;;;;13.48;69.40;100420.47;5187815;27;20405;-89
2024/04/12 00:26:32;;;;;;;20.75;10.80;;;;;;;13.44;68.95;100413.13;5175247;27;20082;-89
2024/04/12 00:28:58;;;;;;;17.90;10.40;;;;;;;13.51;69.10;100422.66;5150088;27;20004;-89
2024/04/12 00:31:26;;;;;;;27.73;10.93;;;;;;;13.54;69.29;100426.72;5179182;27;20516;-88
2024/04/12 00:33:55;;;;;;;16.52;10.85;;;;;;;13.40;69.18;100404.72;5134588;27;19999;-89
2024/04/12 00:36:24;;;;;;;18.20;11.55;;;;;;;13.43;69.31;100416.94;5161968;27;20000;-90
2024/04/12 00:38:50;;;;;;;15.73;10.00;;;;;;;13.51;69.43;100438.91;5136284;27;19999;-90
2024/04/12 00:41:19;;;;;;;17.05;10.18;;;;;;;13.46;68.94;100432.63;5187094;27;20011;-89
2024/04/12 00:43:45;;;;;;;15.20;10.52;;;;;;;13.43;69.34;100425.84;5155678;27;20018;-90
2024/04/12 00:46:19;;;;;;;17.85;10.90;;;;;;;13.41;69.57;100429.91;5149473;27;20003;-90
2024/04/12 00:48:47;;;;;;;16.95;10.98;;;;;;;13.34;69.64;100420.13;5146669;27;20028;-90
2024/04/12 00:51:17;;;;;;;19.25;11.38;;;;;;;13.38;69.66;100425.81;5146057;27;20013;-90
2024/04/12 00:53:46;;;;;;;17.60;10.05;;;;;;;13.37;70.05;100421.50;5162560;27;20087;-90
2024/04/12 00:56:13;;;;;;;14.88;10.55;;;;;;;13.34;69.87;100425.53;5160087;27;20010;-87
2024/04/12 00:58:41;;;;;;;23.20;10.50;;;;;;;13.27;70.40;100426.81;5160379;27;20450;-90
2024/04/12 01:01:11;;;;;;;19.00;10.20;;;;;;;13.19;70.76;100421.88;5160270;27;20003;-90
2024/04/12 01:03:49;;;;;;;14.10;10.50;;;;;;;13.20;70.48;100423.50;5135214;27;20000;-90
2024/04/12 01:06:25;;;;;;;13.35;10.15;;;;;;;13.12;70.84;100417.50;5136795;27;19996;-89
2024/04/12 01:08:57;;;;;;;18.40;10.25;;;;;;;12.96;70.86;100404.94;5133449;27;19999;-89
2024/04/12 01:11:31;;;;;;;17.98;10.40;;;;;;;13.04;71.21;100428.00;5133473;27;20345;-89
2024/04/12 01:13:57;;;;;;;14.00;10.35;;;;;;;13.04;71.27;100420.69;5135953;27;20011;-90
2024/04/12 01:16:23;;;;;;;15.15;10.50;;;;;;;13.05;71.50;100427.75;5135916;27;20008;-90
2024/04/12 01:18:49;;;;;;;19.63;10.65;;;;;;;13.03;71.58;100427.19;5154883;27;20008;-89
2024/04/12 01:21:15;;;;;;;17.83;10.70;;;;;;;13.11;70.84;100431.28;5190588;27;20000;-88
2024/04/12 01:23:44;;;;;;;19.60;10.48;;;;;;;13.04;71.02;100434.22;5167260;27;20007;-90
2024/04/12 01:26:11;;;;;;;14.15;10.68;;;;;;;12.97;70.64;100421.97;5166038;27;20007;-90
2024/04/12 01:28:37;;;;;;;16.17;10.55;;;;;;;13.06;70.88;100439.38;5193773;27;20006;-90
2024/04/12 01:31:03;;;;;;;16.58;10.27;;;;;;;13.06;70.91;100432.06;5166687;27;20054;-90
2024/04/12 01:33:32;;;;;;;14.98;10.63;;;;;;;13.09;70.77;100436.13;5166115;27;20060;-89
2024/04/12 01:36:05;;;;;;;19.90;10.18;;;;;;;13.08;70.37;100424.50;5196045;27;19991;-91
2024/04/12 01:38:37;;;;;;;16.48;9.93;;;;;;;13.04;70.38;100414.47;5169144;27;19999;-90
2024/04/12 01:41:05;;;;;;;15.95;9.55;;;;;;;13.05;70.59;100421.50;5154377;27;20003;-90
2024/04/12 01:43:36;;;;;;;14.52;9.55;;;;;;;12.92;70.66;100404.63;5176711;27;20004;-89
2024/04/12 01:46:04;;;;;;;16.38;9.65;;;;;;;12.93;71.01;100435.22;5154384;27;20004;-94
2024/04/12 01:48:33;;;;;;;16.30;10.02;;;;;;;12.77;71.08;100419.94;5142901;27;20011;-93
2024/04/12 01:51:05;;;;;;;15.55;10.05;;;;;;;12.81;70.92;100419.16;5135567;27;20071;-92
2024/04/12 01:53:41;;;;;;;18.33;9.80;;;;;;;12.71;71.24;100406.38;5135335;27;19996;-93
2024/04/12 01:56:09;;;;;;;16.77;10.25;;;;;;;12.70;71.25;100420.97;5141531;27;20011;-94
2024/04/12 01:58:38;;;;;;;17.13;9.77;;;;;;;12.76;71.04;100429.09;5137077;27;20003;-93
2024/04/12 02:01:04;;;;;;;22.13;11.07;;;;;;;12.79;71.41;100434.81;5135350;27;20003;-93
2024/04/12 02:03:30;;;;;;;18.27;11.35;;;;;;;12.68;71.74;100433.91;5135803;27;20032;-93
2024/04/12 02:06:04;;;;;;;20.98;11.25;;;;;;;12.51;71.74;100407.00;5136101;27;20044;-93
2024/04/12 02:08:32;;;;;;;13.57;10.50;;;;;;;12.50;71.63;100421.56;5137867;27;20016;-93
2024/04/12 02:10:58;;;;;;;17.90;11.55;;;;;;;12.56;72.19;100437.84;5135551;27;19991;-92
2024/04/12 02:13:23;;;;;;;22.90;11.30;;;;;;;12.42;71.93;100419.34;5134899;27;20093;-91
2024/04/12 02:15:51;;;;;;;28.15;11.40;;;;;;;12.53;72.08;100433.75;5135634;27;19996;-93
2024/04/12 02:18:25;;;;;;;15.80;10.90;;;;;;;12.47;72.10;100430.22;5164314;27;20078;-93
2024/04/12 02:20:51;;;;;;;18.83;11.07;;;;;;;12.35;72.06;100429.53;5139730;27;20003;-93
2024/04/12 02:23:19;;;;;;;16.58;10.68;;;;;;;12.31;71.84;100431.91;5135709;27;19995;-91
2024/04/12 02:25:50;;;;;;;20.02;11.57;;;;;;;12.39;71.95;100440.63;5165862;27;20000;-94
2024/04/12 02:28:16;;;;;;;15.98;12.00;;;;;;;12.26;71.84;100429.16;5138225;27;20000;-95
2024/04/12 02:30:44;;;;;;;14.18;11.20;;;;;;;12.23;71.75;100424.28;5137112;27;19999;-93
2024/04/12 02:33:17;;;;;;;16.58;10.98;;;;;;;12.36;71.83;100443.84;5135570;27;20007;-95
2024/04/12 02:35:46;;;;;;;15.85;11.13;;;;;;;12.36;71.73;100435.75;5134955;27;20000;-93
2024/04/12 02:38:15;;;;;;;20.65;11.73;;;;;;;12.24;71.83;100423.22;5134832;27;20012;-94
2024/04/12 02:40:43;;;;;;;19.60;10.80;;;;;;;12.42;71.58;100443.66;5190505;27;20043;-93
2024/04/12 02:43:16;;;;;;;22.73;11.50;;;;;;;12.51;71.74;100457.50;5168010;27;20042;-94
2024/04/12 02:45:52;;;;;;;21.45;11.00;;;;;;;12.43;72.21;100445.28;5162986;27;20031;-95
2024/04/12 02:48:20;;;;;;;19.27;11.30;;;;;;;12.31;72.00;100431.91;5138657;27;20007;-93
2024/04/12 02:50:48;;;;;;;18.85;10.80;;;;;;;12.28;72.35;100431.59;5140071;27;20067;-94
2024/04/12 02:53:18;;;;;;;15.48;10.93;;;;;;;12.23;71.88;100429.66;5138544;27;20011;-93
2024/04/12 02:56:11;;;;;;;16.65;10.80;;;;;;;12.45;71.57;100458.53;5165958;27;20000;-92
2024/04/12 02:58:44;;;;;;;15.77;10.32;;;;;;;12.32;71.73;100448.94;5155292;27;20443;-94
2024/04/12 03:01:17;;;;;;;12.68;10.35;;;;;;;12.29;71.89;100447.56;5164543;27;20000;-94
2024/04/12 03:03:47;;;;;;;19.40;11.13;;;;;;;12.27;71.91;100454.28;5137024;27;20067;-94
2024/04/12 03:06:22;;;;;;;15.65;10.25;;;;;;;12.37;71.75;100467.91;5140021;27;19988;-92
2024/04/12 03:08:49;;;;;;;16.55;10.45;;;;;;;12.25;72.03;100454.53;5165477;27;20016;-93
2024/04/12 03:11:22;;;;;;;17.50;10.20;;;;;;;12.30;71.79;100468.09;5138624;27;20006;-94
2024/04/12 03:13:52;;;;;;;15.05;10.73;;;;;;;12.08;71.91;100449.22;5165463;27;20015;-93
2024/04/12 03:16:21;;;;;;;18.38;10.25;;;;;;;12.06;72.46;100466.75;5139254;27;20075;-93
2024/04/12 03:18:54;;;;;;;16.48;11.55;;;;;;;11.95;72.12;100449.56;5138323;27;19996;-94
2024/04/12 03:21:30;;;;;;;15.48;11.13;;;;;;;12.07;72.55;100468.34;5139476;27;20422;-94
2024/04/12 03:23:57;;;;;;;17.65;10.82;;;;;;;12.04;72.50;100466.16;5141914;27;20004;-93
2024/04/12 03:26:25;;;;;;;13.55;10.77;;;;;;;12.01;73.11;100480.16;5137657;27;20003;-93
2024/04/12 03:28:56;;;;;;;20.77;11.30;;;;;;;11.88;73.37;100476.75;5138672;27;20032;-93
2024/04/12 03:31:33;;;;;;;17.52;11.23;;;;;;;11.96;72.99;100474.72;5137715;27;19996;-93
2024/04/12 03:34:00;;;;;;;20.15;12.18;;;;;;;11.98;72.57;100465.28;5143483;27;20016;-92
2024/04/12 03:36:26;;;;;;;17.35;11.25;;;;;;;12.15;72.42;100469.81;5137306;27;20007;-94
2024/04/12 03:41:43;;;;;;;20.60;12.32;;;;;;;12.04;72.72;100471.56;5213414;27;20014;-93
2024/04/12 03:44:13;;;;;;;18.38;12.32;;;;;;;11.98;72.78;100476.09;5170163;27;20006;-94
2024/04/12 03:46:50;;;;;;;21.25;11.60;;;;;;;12.12;72.62;100500.84;5170276;27;20070;-93
2024/04/12 03:49:20;;;;;;;15.30;10.98;;;;;;;11.98;73.03;100494.16;5173392;27;20434;-92
2024/04/12 03:51:47;;;;;;;24.25;10.52;;;;;;;11.99;72.79;100499.28;5167258;27;20004;-88
2024/04/12 03:54:17;;;;;;;30.60;12.10;;;;;;;11.98;72.80;100502.25;5177063;27;20007;-87
2024/04/12 03:56:43;;;;;;;17.45;11.50;;;;;;;11.98;72.70;100496.88;5148901;27;20008;-89
2024/04/12 03:59:09;;;;;;;23.17;10.98;;;;;;;11.91;72.60;100476.28;5173528;27;20031;-88
2024/04/12 04:01:45;;;;;;;16.17;10.90;;;;;;;11.97;72.59;100485.22;5197797;27;20007;-90
2024/04/12 04:04:19;;;;;;;15.88;11.35;;;;;;;11.88;72.63;100471.34;5167857;27;20013;-92
2024/04/12 04:06:45;;;;;;;19.63;10.73;;;;;;;12.03;73.15;100511.22;5173087;27;20011;-92
2024/04/12 04:09:19;;;;;;;27.30;16.42;;;;;;;12.09;72.74;100522.91;5153513;27;20089;-87
2024/04/12 04:11:48;;;;;;;19.27;10.90;;;;;;;12.04;73.13;100520.16;5160219;27;20007;-90
2024/04/12 04:14:15;;;;;;;16.25;10.70;;;;;;;12.01;73.34;100520.66;5194044;27;20011;-90
2024/04/12 04:16:41;;;;;;;15.55;11.35;;;;;;;12.04;73.09;100526.38;5165992;27;20294;-90
2024/04/12 04:19:12;;;;;;;16.27;10.35;;;;;;;12.12;73.01;100515.13;5192308;27;19995;-90
2024/04/12 04:21:38;;;;;;;29.67;13.43;;;;;;;12.26;72.93;100534.47;5168659;27;20014;-90
2024/04/12 04:24:08;;;;;;;22.85;11.32;;;;;;;12.32;72.37;100535.34;5166990;27;20610;-91
2024/04/12 04:26:41;;;;;;;20.33;11.98;;;;;;;12.20;72.48;100527.41;5192838;27;20497;-91
2024/04/12 04:29:10;;;;;;;23.13;12.10;;;;;;;12.15;72.20;100505.72;5165743;27;20530;-90
2024/04/12 04:31:49;;;;;;;27.25;11.85;;;;;;;12.37;72.07;100543.53;5166777;27;20318;-93
2024/04/12 04:34:20;;;;;;;24.33;14.32;;;;;;;12.17;71.77;100513.56;5195547;27;20070;-89
2024/04/12 04:36:49;;;;;;;35.92;11.88;;;;;;;12.28;71.63;100509.91;5172426;27;20010;-93
2024/04/12 04:39:32;;;;;;;33.83;13.13;;;;;;;12.36;71.99;100522.97;5155913;27;20078;-91
2024/04/12 04:52:08;;;;;;;18.55;11.00;;;;;;;12.57;70.93;100540.25;5061043;28;20136;-94
2024/04/12 04:54:39;;;;;;;18.65;11.65;;;;;;;12.40;70.60;100515.19;5008405;28;20000;-89
2024/04/12 04:57:05;;;;;;;16.80;11.07;;;;;;;12.57;69.33;100523.22;5092708;27;19993;-93
2024/04/12 04:59:32;;;;;;;25.70;11.70;;;;;;;12.66;69.43;100521.72;5097497;27;19996;-93
2024/04/12 05:02:00;;;;;;;20.27;11.25;;;;;;;12.84;69.37;100550.25;5071584;27;20018;-92
2024/04/12 05:04:31;;;;;;;18.35;10.32;;;;;;;12.71;69.50;100527.97;5112551;27;20005;-90
2024/04/12 05:06:59;;;;;;;21.35;10.30;;;;;;;12.76;69.23;100529.91;5181405;27;20028;-91
2024/04/12 05:09:28;;;;;;;18.63;10.82;;;;;;;12.96;68.69;100537.41;5185858;27;20087;-91
2024/04/12 05:11:56;;;;;;;20.45;11.30;;;;;;;13.06;68.59;100542.91;5155760;27;20081;-90
2024/04/12 05:17:09;;;;;;;17.15;10.68;;;;;;;13.30;67.30;100524.50;5169056;27;20078;-89
2024/04/12 05:19:43;;;;;;;19.13;11.15;;;;;;;13.41;67.02;100525.41;5160465;27;20012;-91
2024/04/12 05:22:13;;;;;;;23.85;11.90;;;;;;;13.64;66.72;100547.75;5136944;27;20062;-89
2024/04/12 05:24:41;;;;;;;17.45;11.23;;;;;;;13.49;66.64;100529.53;5133193;27;20008;-92
2024/04/12 05:27:11;;;;;;;18.42;10.55;;;;;;;13.61;66.13;100534.75;5158198;27;20431;-91
2024/04/12 05:29:37;;;;;;;23.33;10.90;;;;;;;13.66;66.31;100532.88;5156253;27;20396;-92
2024/04/12 05:32:06;;;;;;;26.63;11.68;;;;;;;13.66;66.04;100513.94;5156993;27;20035;-93
2024/04/12 05:34:32;;;;;;;16.92;11.25;;;;;;;14.03;65.38;100551.00;5170862;27;20086;-91
2024/04/12 05:37:03;;;;;;;15.93;10.75;;;;;;;14.00;65.20;100532.53;5133448;27;20020;-91
2024/04/12 05:39:41;;;;;;;19.40;11.25;;;;;;;14.08;65.19;100517.69;5134963;27;19999;-90
2024/04/12 05:42:09;;;;;;;18.67;11.20;;;;;;;14.25;64.37;100536.47;5162635;27;20403;-90
2024/04/12 05:44:39;;;;;;;19.35;11.73;;;;;;;14.37;64.23;100538.97;5134124;27;20008;-91
2024/04/12 05:47:09;;;;;;;23.92;11.57;;;;;;;14.46;63.82;100527.31;5157571;27;20003;-88
2024/04/12 05:49:46;;;;;;;25.33;11.90;;;;;;;14.58;63.25;100537.97;5156692;27;20018;-93
2024/04/12 05:52:19;;;;;;;21.30;11.32;;;;;;;14.61;63.19;100526.63;5144844;27;20015;-93
2024/04/12 05:55:13;;;;;;;28.70;12.85;;;;;;;14.81;61.99;100519.59;5135769;27;20004;-92
2024/04/12 05:57:39;;;;;;;22.48;12.88;;;;;;;15.03;62.27;100543.78;5161495;27;20000;-92
2024/04/12 06:00:09;;;;;;;28.95;14.05;;;;;;;15.08;61.91;100535.63;5141453;27;20008;-92
2024/04/12 06:02:37;;;;;;;28.77;13.43;;;;;;;15.19;61.49;100542.72;5153831;27;20003;-89
2024/04/12 06:05:22;;;;;;;24.80;14.10;;;;;;;15.20;61.04;100519.91;5140734;27;20024;-91
2024/04/12 06:07:48;;;;;;;27.20;14.32;;;;;;;15.31;60.51;100516.09;5143283;27;20004;-90
2024/04/12 06:10:46;;;;;;;27.33;13.27;;;;;;;15.43;60.49;100518.56;5132130;27;20014;-90
2024/04/12 06:13:12;;;;;;;33.47;14.95;;;;;;;15.63;59.91;100523.16;5161828;27;20031;-91
2024/04/12 06:16:09;;;;;;;28.20;13.80;;;;;;;15.80;59.51;100546.53;5158498;27;20442;-90
2024/04/12 06:18:42;;;;;;;27.70;13.82;;;;;;;15.82;58.97;100541.63;5159448;27;20008;-91
2024/04/12 06:21:10;;;;;;;20.80;14.10;;;;;;;15.81;59.38;100529.94;5133139;27;20315;-91
2024/04/12 06:23:37;;;;;;;26.80;13.95;;;;;;;15.99;58.79;100546.75;5140721;27;20034;-91
2024/04/12 06:26:06;;;;;;;18.73;12.57;;;;;;;16.11;58.83;100541.81;5146286;27;20079;-91
2024/04/12 06:28:31;;;;;;;21.30;13.10;;;;;;;16.09;58.69;100528.50;5145199;27;20004;-90
2024/04/12 06:31:05;;;;;;;28.13;11.65;;;;;;;16.30;58.11;100542.03;5162819;27;20003;-92
2024/04/12 06:33:33;;;;;;;19.27;11.27;;;;;;;16.39;57.55;100547.69;5139644;27;20435;-91
2024/04/12 06:36:05;;;;;;;19.92;11.85;;;;;;;16.39;57.34;100531.38;5133047;27;20031;-91
2024/04/12 06:38:32;;;;;;;20.92;10.73;;;;;;;16.61;57.10;100525.56;5134246;27;19996;-90
2024/04/12 06:41:03;;;;;;;18.10;10.02;;;;;;;16.70;56.79;100526.59;5158638;27;20015;-93
2024/04/12 06:43:29;;;;;;;15.93;9.45;;;;;;;16.82;55.72;100543.44;5160094;27;20018;-90
2024/04/12 06:46:11;;;;;;;15.70;9.15;;;;;;;16.93;55.63;100536.84;5143908;27;20004;-89
2024/04/12 06:49:08;;;;;;;19.80;10.23;;;;;;;16.98;55.27;100535.19;5154782;27;20334;-93
2024/04/12 06:52:39;;;;;;;;;;;;;;;;;;;;;
2024/04/12 06:55:30;;;;;;;16.20;10.02;;;;;;;17.25;55.25;100524.63;5183592;27;20449;-89
2024/04/12 06:58:41;;;;;;;18.90;9.02;;;;;;;17.51;53.52;100544.25;5152261;27;20290;-91
2024/04/12 07:05:15;;;;;;;20.63;7.80;;;;;;;17.96;52.16;100550.41;5051240;28;19999;-91
2024/04/12 07:08:33;;;;;;;22.00;13.23;;;;;;;18.20;51.37;100544.16;4990665;27;20078;-89
2024/04/12 07:11:06;;;;;;;20.48;9.52;;;;;;;18.16;51.45;100516.66;5119101;27;20320;-93
2024/04/12 07:13:33;;;;;;;12.25;7.03;;;;;;;18.38;51.34;100529.75;5097553;27;20358;-91
2024/04/12 07:16:08;;;;;;;20.33;9.10;;;;;;;18.55;50.67;100531.16;5067306;27;20016;-91
2024/04/12 07:19:18;;;;;;;;;;;;;;;;;;;;;
2024/04/12 07:21:54;;;;;;;13.07;8.05;;;;;;;18.91;49.56;100536.97;5026708;28;20003;-92
2024/04/12 07:24:23;;;;;;;15.27;8.45;;;;;;;18.77;49.42;100514.22;4946324;28;20019;-90
2024/04/12 07:30:16;;;;;;;13.43;6.47;;;;;;;19.00;49.63;100533.59;4983334;28;20368;-91
2024/04/12 07:32:50;;;;;;;6.15;4.38;;;;;;;19.08;48.91;100525.53;5051073;27;20012;-90
2024/04/12 07:35:38;;;;;;;14.32;4.25;;;;;;;19.16;48.76;100524.84;5093313;27;20565;-91
2024/04/12 07:38:55;;;;;;;;;;;;;;;;;;;;;
2024/04/12 07:43:56;;;;;;;9.80;3.67;;;;;;;19.47;47.90;100509.88;5180794;27;20036;-90
2024/04/12 07:46:37;;;;;;;9.05;4.38;;;;;;;19.65;47.80;100519.09;5138184;27;20014;-94
2024/04/12 07:49:08;;;;;;;6.65;3.75;;;;;;;19.77;47.06;100519.47;5177353;27;20012;-92
2024/04/12 07:51:39;;;;;;;7.90;4.03;;;;;;;19.81;47.02;100520.47;5182997;27;20346;-88
2024/04/12 07:55:02;;;;;;;13.05;4.22;;;;;;;19.80;46.74;100513.41;5187450;27;20014;-90
2024/04/12 07:57:29;;;;;;;7.32;3.97;;;;;;;19.84;46.29;100514.44;5116361;27;20452;-90
2024/04/12 07:59:55;;;;;;;5.50;3.92;;;;;;;19.76;46.74;100526.06;5162719;27;20087;-91
2024/04/12 08:02:21;;;;;;;8.13;4.22;;;;;;;19.70;46.91;100498.00;5149072;27;20001;-91
2024/04/12 08:04:47;;;;;;;9.93;4.43;;;;;;;19.88;46.52;100504.50;5165748;27;20001;-92
2024/04/12 08:07:17;;;;;;;7.55;3.80;;;;;;;20.09;46.76;100524.06;5182045;27;20080;-89
2024/04/12 08:10:09;;;;;;;7.07;4.00;;;;;;;19.98;46.39;100504.31;5155162;27;20013;-90
2024/04/12 08:15:33;;;;;;;8.70;3.83;;;;;;;20.13;46.41;100494.97;5203036;27;20021;-89
2024/04/12 08:18:03;;;;;;;6.70;3.90;;;;;;;20.21;46.08;100498.09;5183769;27;20006;-93
2024/04/12 08:20:39;;;;;;;8.02;4.22;;;;;;;20.34;46.62;100514.50;5165366;27;20035;-90
2024/04/12 08:23:05;;;;;;;9.63;4.10;;;;;;;20.41;46.18;100505.09;5203361;27;20516;-91
2024/04/12 08:25:36;;;;;;;5.88;3.50;;;;;;;20.50;45.91;100511.44;5156164;27;20051;-92
2024/04/12 08:31:47;;;;;;;10.80;3.73;;;;;;;20.63;45.35;100513.38;5095081;28;20082;-90
2024/04/12 08:34:14;;;;;;;7.50;4.00;;;;;;;20.73;45.81;100506.84;5076685;28;20010;-92
2024/04/12 08:36:40;;;;;;;9.18;4.25;;;;;;;20.81;45.87;100517.06;5121691;27;20000;-91
2024/04/12 08:39:25;;;;;;;11.70;3.72;;;;;;;20.97;45.23;100517.53;5193413;27;20003;-95
2024/04/12 08:42:26;;;;;;;12.38;3.80;;;;;;;20.84;45.46;100501.97;5151433;27;20438;-91
2024/04/12 08:44:55;;;;;;;9.45;3.90;;;;;;;20.81;45.79;100495.16;5171437;27;20310;-92
2024/04/12 08:50:13;;;;;;;6.68;3.63;;;;;;;20.96;45.57;100500.28;5167533;27;20505;-94
2024/04/12 08:52:46;;;;;;;6.72;3.72;;;;;;;21.03;45.05;100493.56;5161276;27;20016;-94
2024/04/12 08:55:14;;;;;;;8.13;3.55;;;;;;;21.17;44.92;100497.06;5132560;27;19984;-95
2024/04/12 08:58:00;;;;;;;4.85;3.60;;;;;;;21.24;44.97;100521.28;5132598;27;20510;-94
2024/04/12 09:01:29;;;;;;;6.32;3.70;;;;;;;21.11;45.31;100490.88;5108664;27;20374;-91
2024/04/12 09:04:13;;;;;;;;;;;;;;;;;;;;;
2024/04/12 09:06:48;;;;;;;4.55;3.60;;;;;;;21.28;45.06;100501.16;5139411;27;20000;-95
2024/04/12 09:13:22;;;;;;;12.13;4.03;;;;;;;21.19;44.70;100462.75;5083979;28;20003;-91
2024/04/12 09:15:51;;;;;;;6.13;4.03;;;;;;;21.36;44.45;100477.69;5057410;28;20442;-90
2024/04/12 09:18:26;;;;;;;6.45;3.90;;;;;;;21.45;44.63;100486.78;5092158;27;20000;-93
2024/04/12 09:21:01;;;;;;;14.30;3.78;;;;;;;21.44;44.74;100481.63;5158856;27;20044;-95
2024/04/12 09:24:09;;;;;;;13.35;3.60;;;;;;;21.47;44.52;100492.75;5138873;27;20011;-95
2024/04/12 09:27:33;;;;;;;8.45;3.92;;;;;;;21.59;44.09;100484.75;5093058;27;19992;-94
2024/04/12 09:33:12;;;;;;;;;;;;;;;;;;;;;
2024/04/12 09:35:54;;;;;;;5.68;3.40;;;;;;;21.56;44.18;100466.22;5217247;27;20003;-93
2024/04/12 09:38:34;;;;;;;6.33;3.57;;;;;;;21.67;44.20;100463.19;5150122;27;20004;-93
2024/04/12 09:41:25;;;;;;;;;;;;;;;;;;;;;
2024/04/12 09:43:54;;;;;;;7.90;3.90;;;;;;;21.76;43.85;100464.03;5163097;27;20000;-92
2024/04/12 09:46:46;;;;;;;6.43;4.25;;;;;;;21.81;43.85;100458.41;5143430;27;20032;-92
2024/04/12 10:39:21;;;;;;;5.22;3.17;;;;;;;22.64;41.21;100424.69;5161059;27;20060;-91
2024/04/12 10:41:53;;;;;;;8.10;3.47;;;;;;;22.65;41.01;100429.03;5148491;27;20009;-90
2024/04/12 10:44:24;;;;;;;6.20;3.53;;;;;;;22.65;40.88;100407.06;5156665;27;20019;-90
2024/04/12 10:46:59;;;;;;;6.20;3.83;;;;;;;22.78;39.91;100399.78;5141513;27;20012;-92
2024/04/12 10:49:30;;;;;;;5.93;3.55;;;;;;;22.76;40.72;100411.06;5137103;27;20121;-91
2024/04/12 10:51:58;;;;;;;7.47;3.47;;;;;;;22.85;40.37;100400.09;5054266;28;20006;-90
2024/04/12 10:54:54;;;;;;;6.45;3.60;;;;;;;22.80;41.67;100403.78;5047935;28;20108;-94
2024/04/12 10:57:29;;;;;;;7.90;3.90;;;;;;;22.86;41.11;100404.44;5039781;28;20026;-96
2024/04/12 11:00:04;;;;;;;8.57;3.63;;;;;;;22.90;41.15;100393.63;5041720;28;20013;-96
2024/04/12 11:02:36;;;;;;;11.25;3.67;;;;;;;22.90;40.87;100396.38;5068920;28;20001;-92
2024/04/12 11:07:49;;;;;;;7.70;3.75;;;;;;;23.03;39.79;100387.13;5063863;28;20042;-94
2024/04/12 11:10:38;;;;;;;8.00;3.50;;;;;;;23.04;40.81;100399.75;5056911;28;20498;-93
2024/04/12 11:13:06;;;;;;;6.72;3.58;;;;;;;23.06;40.32;100402.97;5065486;28;20063;-94
2024/04/12 11:33:09;;;;;;;4.70;3.30;;;;;;;23.36;40.87;100392.84;5171265;27;20084;-95
2024/04/12 11:35:35;;;;;;;6.38;3.58;;;;;;;23.38;40.01;100368.59;5167968;27;20039;-94
2024/04/12 11:38:49;;;;;;;7.28;4.00;;;;;;;23.31;40.32;100353.78;5105863;27;20005;-92
2024/04/12 11:41:23;;;;;;;7.07;3.90;;;;;;;23.38;39.98;100349.34;5132343;27;20000;-92
2024/04/12 11:44:17;;;;;;;9.20;3.65;;;;;;;23.38;41.07;100349.34;5183415;27;20014;-92
2024/04/12 11:46:55;;;;;;;6.13;3.30;;;;;;;23.66;40.87;100364.56;5171505;27;20011;-93
2024/04/12 11:49:30;;;;;;;9.52;4.00;;;;;;;23.74;40.57;100352.72;5139448;27;20004;-91
2024/04/12 11:51:56;;;;;;;8.70;3.67;;;;;;;23.78;39.43;100346.25;5121560;27;20001;-92
2024/04/12 11:54:38;;;;;;;8.23;3.47;;;;;;;23.63;39.57;100343.25;5172906;27;20000;-93
2024/04/12 11:57:19;;;;;;;11.00;4.10;;;;;;;23.87;39.21;100359.94;5157090;27;20464;-94
2024/04/12 12:00:09;;;;;;;7.28;3.63;;;;;;;23.75;37.74;100329.59;5123709;27;19997;-95
2024/04/12 12:02:42;;;;;;;5.18;3.25;;;;;;;23.75;38.11;100337.84;5103845;27;20012;-92
2024/04/12 12:05:17;;;;;;;6.18;3.80;;;;;;;23.62;38.43;100330.66;5099932;27;20001;-90
2024/04/12 12:07:47;;;;;;;11.65;4.18;;;;;;;23.55;38.36;100340.22;5125435;27;20333;-88
2024/04/12 12:10:16;;;;;;;8.10;4.50;;;;;;;23.56;37.79;100328.06;5103498;27;20016;-89
2024/04/12 12:12:47;;;;;;;8.75;3.55;;;;;;;23.62;37.81;100342.44;5094136;27;20004;-90
2024/04/12 12:15:14;;;;;;;5.63;3.70;;;;;;;23.66;38.17;100331.56;5108726;27;20110;-91
2024/04/12 12:17:40;;;;;;;8.88;4.07;;;;;;;23.60;37.22;100314.47;5118194;27;20477;-90
2024/04/12 12:20:07;;;;;;;8.50;3.25;;;;;;;23.72;36.89;100320.06;5063651;28;19994;-90
2024/04/12 12:22:33;;;;;;;9.57;3.22;;;;;;;23.69;36.44;100315.22;5064151;28;20405;-92
2024/04/12 12:25:16;;;;;;;9.88;3.60;;;;;;;23.70;36.32;100307.75;5068620;27;20085;-89
2024/04/12 12:27:45;;;;;;;11.57;3.50;;;;;;;23.77;36.46;100316.34;5110741;27;20001;-90
2024/04/12 12:30:14;;;;;;;8.93;3.63;;;;;;;23.65;36.07;100286.78;5091913;27;20005;-92
2024/04/12 12:32:45;;;;;;;5.85;3.50;;;;;;;23.81;34.70;100309.03;5110212;27;20019;-90
2024/04/12 12:35:30;;;;;;;9.43;3.95;;;;;;;23.71;34.44;100307.44;5129411;27;20400;-87
2024/04/12 12:38:01;;;;;;;5.35;3.60;;;;;;;23.78;34.29;100298.69;5084188;28;20395;-90
2024/04/12 12:44:44;;;;;;;;;;;;;;;;;;;;;
2024/04/12 12:51:49;;;;;;;7.35;3.78;;;;;;;23.83;34.66;100272.94;4850970;29;20373;-95
2024/04/12 13:09:00;;;;;;;6.97;3.65;;;;;;;24.54;34.68;100260.97;4879306;29;20447;-93
2024/04/12 13:11:42;;;;;;;5.25;3.60;;;;;;;24.57;34.57;100246.50;4861712;29;20481;-94
2024/04/12 13:14:10;;;;;;;5.38;3.53;;;;;;;24.46;35.11;100240.59;4860999;28;20009;-94
2024/04/12 13:16:41;;;;;;;6.45;3.75;;;;;;;24.43;34.48;100257.81;5014693;27;20045;-95
2024/04/12 13:19:21;;;;;;;7.22;3.70;;;;;;;24.35;35.03;100259.50;5131287;27;20003;-94
2024/04/12 13:21:57;;;;;;;9.60;3.50;;;;;;;24.45;34.99;100247.28;5130932;27;20308;-95
2024/04/12 13:24:31;;;;;;;7.40;3.60;;;;;;;24.49;34.73;100241.88;5179027;27;20020;-92
2024/04/12 13:26:59;;;;;;;6.57;3.25;;;;;;;24.46;35.26;100226.84;5152222;27;20087;-94
2024/04/12 13:29:29;;;;;;;7.63;3.55;;;;;;;24.71;35.01;100246.97;5151138;27;20008;-90
2024/04/12 13:31:57;;;;;;;9.63;3.63;;;;;;;24.67;34.82;100231.50;5157529;27;20059;-91
2024/04/12 13:34:24;;;;;;;6.57;3.58;;;;;;;24.72;35.61;100259.63;5132269;27;20008;-92
2024/04/12 13:36:53;;;;;;;6.95;4.00;;;;;;;24.63;35.29;100231.38;5137263;27;20009;-92
2024/04/12 13:39:19;;;;;;;10.05;4.07;;;;;;;24.65;35.49;100223.56;5117172;27;20004;-93
2024/04/12 13:41:45;;;;;;;5.78;3.45;;;;;;;24.94;35.22;100224.50;5130790;27;19998;-95
2024/04/12 13:50:46;;;;;;;11.65;3.80;;;;;;;25.16;34.97;100228.75;5104650;27;20007;-92
2024/04/12 13:52:55;;;;;;;7.43;3.42;;;;;;;25.04;34.45;100220.50;5141471;27;20014;-92
2024/04/12 13:55:24;;;;;;;9.05;3.65;;;;;;;25.17;34.73;100219.31;5151133;27;20029;-90
2024/04/12 13:58:08;;;;;;;8.60;3.38;;;;;;;25.12;34.39;100216.81;5105840;27;19997;-91
2024/04/12 14:00:36;;;;;;;5.57;3.58;;;;;;;25.26;34.18;100228.31;5091226;28;20125;-91
2024/04/12 14:03:21;;;;;;;5.32;3.33;;;;;;;25.25;34.36;100223.94;5065262;27;20041;-91
2024/04/12 14:05:52;;;;;;;5.55;3.35;;;;;;;25.15;34.67;100203.16;5093959;27;20021;-94
2024/04/12 14:08:20;;;;;;;7.45;3.30;;;;;;;25.20;34.44;100207.63;5067824;28;20054;-95
2024/04/12 14:13:19;;;;;;;8.50;3.40;;;;;;;25.23;34.71;100197.88;5119766;27;20037;-92
2024/04/12 14:15:47;;;;;;;9.55;4.43;;;;;;;25.45;34.37;100210.38;5101206;28;20901;-89
2024/04/12 14:18:15;;;;;;;10.52;3.60;;;;;;;25.25;34.62;100192.81;5077350;27;20013;-91
2024/04/12 14:20:45;;;;;;;7.90;3.40;;;;;;;25.53;33.95;100201.16;5102300;27;20421;-91